Time;durP1;ratioP1;P1;durP2;ratioP2;P2;SDS_P1;SDS_P2;PMS_P1;PMS_P2;Temp;Humidity;BMP_temperature;BMP_pressure;BME280_temperature;BME280_humidity;BME280_pressure;Samples;Min_cycle;Max_cycle;Signal;HPM_P1;HPM_P2
2022/07/25 00:02:06;;;;;;;9.08;6.20;;;;;;;22.49;100.00;99328.55;1806931;78;21030;-65
2022/07/25 00:04:33;;;;;;;12.13;6.65;;;;;;;22.37;100.00;99332.61;1756271;80;21130;-64
2022/07/25 00:07:01;;;;;;;8.65;6.35;;;;;;;22.42;100.00;99334.78;1744998;81;21000;-64
2022/07/25 00:09:28;;;;;;;6.67;5.97;;;;;;;22.48;100.00;99335.98;1753821;81;21507;-64
2022/07/25 00:11:55;;;;;;;10.95;5.72;;;;;;;22.50;100.00;99320.32;1740183;81;20992;-65
2022/07/25 00:14:21;;;;;;;7.75;5.78;;;;;;;22.50;100.00;99320.32;1743995;80;21472;-65
2022/07/25 00:16:48;;;;;;;7.08;5.58;;;;;;;22.52;100.00;99326.15;1755154;81;21809;-64
2022/07/25 00:19:16;;;;;;;7.80;5.80;;;;;;;22.53;100.00;99320.13;1745686;81;21003;-65
2022/07/25 00:21:43;;;;;;;9.40;5.55;;;;;;;22.51;100.00;99321.13;1754391;81;21037;-65
2022/07/25 00:24:10;;;;;;;9.55;5.60;;;;;;;22.45;100.00;99322.14;1747905;81;21053;-65
2022/07/25 00:26:37;;;;;;;8.90;5.83;;;;;;;22.38;100.00;99320.16;1753760;81;21066;-65
2022/07/25 00:29:04;;;;;;;6.22;5.62;;;;;;;22.36;100.00;99323.19;1740359;81;21191;-66
2022/07/25 00:31:32;;;;;;;6.28;5.40;;;;;;;22.36;100.00;99321.20;1741391;80;21063;-65
2022/07/25 00:33:59;;;;;;;9.35;5.83;;;;;;;22.32;100.00;99319.59;1741379;81;21550;-63
2022/07/25 00:36:26;;;;;;;8.65;5.12;;;;;;;22.37;100.00;99322.78;1743049;80;20996;-66
2022/07/25 00:38:52;;;;;;;8.50;5.28;;;;;;;22.25;100.00;99323.22;1750971;81;21126;-64
2022/07/25 00:41:18;;;;;;;8.55;5.55;;;;;;;22.21;100.00;99332.26;1768641;80;21188;-65
2022/07/25 00:43:45;;;;;;;8.28;5.35;;;;;;;22.22;100.00;99324.84;1753032;81;21042;-64
2022/07/25 00:46:15;;;;;;;7.47;5.92;;;;;;;22.20;100.00;99332.05;1745077;81;21384;-64
2022/07/25 00:48:43;;;;;;;7.30;5.92;;;;;;;22.11;100.00;99326.26;1753380;81;21039;-65
2022/07/25 00:51:09;;;;;;;9.08;5.60;;;;;;;22.24;100.00;99317.42;1744535;81;20992;-64
2022/07/25 00:53:37;;;;;;;9.80;6.03;;;;;;;22.22;100.00;99318.42;1738445;81;21206;-65
2022/07/25 00:56:05;;;;;;;14.28;5.62;;;;;;;22.19;100.00;99318.64;1768339;80;21057;-65
2022/07/25 00:58:32;;;;;;;6.37;5.35;;;;;;;22.17;100.00;99316.84;1741902;81;21501;-65
2022/07/25 01:00:58;;;;;;;8.50;5.50;;;;;;;22.13;100.00;99317.44;1752116;81;21007;-65
2022/07/25 01:03:25;;;;;;;10.45;5.55;;;;;;;22.08;100.00;99317.25;1740038;81;21017;-64
2022/07/25 01:05:51;;;;;;;8.03;5.28;;;;;;;22.07;100.00;99326.89;1741133;81;21115;-65
2022/07/25 01:08:18;;;;;;;13.78;6.17;;;;;;;22.02;100.00;99317.48;1743151;80;21027;-65
2022/07/25 01:10:45;;;;;;;6.75;5.15;;;;;;;21.94;100.00;99317.30;1752672;81;20995;-65
2022/07/25 01:13:13;;;;;;;8.15;6.00;;;;;;;21.89;100.00;99322.09;1748063;81;21051;-65
2022/07/25 01:15:39;;;;;;;16.27;5.45;;;;;;;21.82;100.00;99322.09;1741592;81;21056;-65
2022/07/25 01:18:06;;;;;;;28.20;5.83;;;;;;;21.80;100.00;99322.31;1739937;81;21140;-65
2022/07/25 01:20:32;;;;;;;7.80;5.17;;;;;;;21.86;100.00;99317.89;1742027;81;20980;-66
2022/07/25 01:22:59;;;;;;;6.97;5.08;;;;;;;21.94;100.00;99327.11;1753627;81;20999;-65
2022/07/25 01:25:26;;;;;;;6.08;5.33;;;;;;;21.96;100.00;99329.70;1770081;80;21067;-65
2022/07/25 01:27:52;;;;;;;11.18;5.42;;;;;;;21.86;100.00;99321.50;1742319;81;21049;-65
2022/07/25 01:30:20;;;;;;;7.53;5.33;;;;;;;21.84;100.00;99320.29;1745067;81;21159;-65
2022/07/25 01:32:48;;;;;;;8.45;5.10;;;;;;;21.79;100.00;99324.91;1750969;80;21039;-65
2022/07/25 01:35:15;;;;;;;5.85;4.95;;;;;;;21.71;100.00;99326.89;1806544;78;20972;-65
2022/07/25 01:37:42;;;;;;;6.20;4.92;;;;;;;21.72;100.00;99319.48;1799237;78;20963;-65
2022/07/25 01:40:09;;;;;;;13.30;5.55;;;;;;;21.72;100.00;99321.48;1804582;78;20984;-64
2022/07/25 01:42:35;;;;;;;10.72;5.53;;;;;;;21.67;100.00;99326.08;1800742;78;21140;-65
2022/07/25 01:45:03;;;;;;;6.92;5.15;;;;;;;21.65;100.00;99323.68;1799055;78;21027;-63
2022/07/25 01:47:30;;;;;;;8.58;4.92;;;;;;;21.59;100.00;99328.09;1804045;78;21514;-64
2022/07/25 01:49:56;;;;;;;8.38;5.55;;;;;;;21.52;100.00;99326.09;1800817;78;21022;-66
2022/07/25 01:52:23;;;;;;;7.20;5.70;;;;;;;21.51;100.00;99319.68;1758606;80;21075;-64
2022/07/25 01:54:50;;;;;;;8.90;5.42;;;;;;;21.48;100.00;99318.28;1740718;81;21148;-64
2022/07/25 01:57:17;;;;;;;7.30;4.95;;;;;;;21.50;100.00;99322.89;1735555;81;21078;-64
2022/07/25 01:59:44;;;;;;;7.55;5.00;;;;;;;21.49;100.00;99329.70;1759080;80;21033;-65
2022/07/25 02:02:10;;;;;;;10.68;4.78;;;;;;;21.48;100.00;99325.28;1741052;81;21618;-65
2022/07/25 02:04:37;;;;;;;13.60;5.03;;;;;;;21.45;100.00;99328.30;1749499;81;21027;-63
2022/07/25 02:07:04;;;;;;;7.97;5.35;;;;;;;21.42;100.00;99331.09;1745248;81;21146;-65
2022/07/25 02:09:31;;;;;;;7.40;4.95;;;;;;;21.35;100.00;99325.70;1739698;81;21087;-64
2022/07/25 02:11:59;;;;;;;9.55;5.08;;;;;;;21.31;100.00;99329.70;1737543;81;21016;-64
2022/07/25 02:14:25;;;;;;;6.00;4.62;;;;;;;21.33;100.00;99321.08;1744191;81;21004;-63
2022/07/25 02:16:52;;;;;;;8.35;5.10;;;;;;;21.34;100.00;99321.27;1747294;81;20973;-65
2022/07/25 02:19:20;;;;;;;8.75;4.58;;;;;;;21.35;100.00;99324.30;1746230;81;21774;-65
2022/07/25 02:21:46;;;;;;;8.85;4.40;;;;;;;21.29;100.00;99327.27;1742764;81;21588;-64
2022/07/25 02:24:13;;;;;;;7.00;4.72;;;;;;;21.24;100.00;99323.49;1747380;81;21475;-64
2022/07/25 02:26:40;;;;;;;9.53;4.40;;;;;;;21.13;100.00;99328.47;1749578;81;21106;-64
2022/07/25 02:29:06;;;;;;;5.87;4.50;;;;;;;21.16;100.00;99324.06;1738416;81;21051;-65
2022/07/25 02:31:34;;;;;;;7.62;4.85;;;;;;;21.10;100.00;99322.86;1746202;81;21066;-63
2022/07/25 02:34:01;;;;;;;11.73;4.35;;;;;;;21.10;100.00;99321.46;1768444;80;21050;-65
2022/07/25 02:36:27;;;;;;;8.85;4.22;;;;;;;21.15;100.00;99325.27;1717599;83;21106;-65
2022/07/25 02:38:54;;;;;;;11.25;4.90;;;;;;;21.13;100.00;99329.87;1804674;78;20991;-65
2022/07/25 02:41:21;;;;;;;8.65;5.25;;;;;;;21.18;100.00;99325.88;1802311;78;21022;-63
2022/07/25 02:43:47;;;;;;;7.95;4.83;;;;;;;21.17;100.00;99325.69;1743911;81;21914;-64
2022/07/25 02:46:13;;;;;;;7.67;4.83;;;;;;;21.17;100.00;99328.48;1738830;81;21087;-64
2022/07/25 02:48:41;;;;;;;8.88;4.92;;;;;;;21.11;100.00;99330.05;1734557;81;21034;-65
2022/07/25 02:51:08;;;;;;;8.78;4.72;;;;;;;21.13;100.00;99331.28;1799459;78;21483;-64
2022/07/25 02:53:34;;;;;;;7.55;4.50;;;;;;;21.09;100.00;99326.84;1803623;78;21038;-64
2022/07/25 02:56:01;;;;;;;6.60;5.17;;;;;;;21.09;100.00;99325.44;1806270;78;21218;-63
2022/07/25 02:58:27;;;;;;;7.03;4.72;;;;;;;21.04;100.00;99335.85;1798088;78;21061;-65
2022/07/25 03:00:54;;;;;;;8.38;5.22;;;;;;;21.08;100.00;99331.66;1803395;78;21015;-65
2022/07/25 03:03:20;;;;;;;12.37;5.80;;;;;;;21.07;100.00;99336.27;1803891;78;21007;-64
2022/07/25 03:05:48;;;;;;;6.70;4.85;;;;;;;21.04;100.00;99338.66;1798360;78;20971;-64
2022/07/25 03:08:15;;;;;;;8.95;4.53;;;;;;;21.06;100.00;99341.64;1803973;78;21196;-64
2022/07/25 03:10:42;;;;;;;6.20;4.72;;;;;;;21.07;100.00;99337.05;1790149;78;21069;-64
2022/07/25 03:13:08;;;;;;;11.85;5.08;;;;;;;21.06;100.00;99336.85;1796512;78;20991;-64
2022/07/25 03:15:36;;;;;;;6.25;4.58;;;;;;;21.10;100.00;99338.27;1803296;78;21031;-65
2022/07/25 03:18:03;;;;;;;10.40;4.40;;;;;;;20.97;100.00;99342.02;1802396;78;21046;-64
2022/07/25 03:20:29;;;;;;;10.45;4.72;;;;;;;20.92;100.00;99333.38;1796743;78;21411;-65
2022/07/25 03:22:56;;;;;;;5.15;3.72;;;;;;;20.90;100.00;99343.58;1803725;78;20972;-64
2022/07/25 03:25:23;;;;;;;8.83;4.55;;;;;;;21.00;100.00;99339.84;1797345;78;20967;-65
2022/07/25 03:27:50;;;;;;;7.33;4.17;;;;;;;21.08;100.00;99340.06;1798683;78;20999;-64
2022/07/25 03:30:16;;;;;;;6.40;4.08;;;;;;;21.11;100.00;99323.86;1803850;78;21015;-66
2022/07/25 03:32:42;;;;;;;6.10;3.80;;;;;;;21.06;100.00;99331.25;1802299;78;21129;-64
2022/07/25 03:35:09;;;;;;;6.42;3.98;;;;;;;21.02;100.00;99331.83;1805673;78;20987;-65
2022/07/25 03:37:35;;;;;;;10.25;4.22;;;;;;;21.01;100.00;99332.45;1809005;78;21031;-64
2022/07/25 03:40:04;;;;;;;7.28;4.00;;;;;;;21.02;100.00;99327.63;1809344;78;20997;-65
2022/07/25 03:42:30;;;;;;;7.30;4.47;;;;;;;21.08;100.00;99329.45;1806257;78;21546;-65
2022/07/25 03:44:57;;;;;;;7.58;3.83;;;;;;;21.03;100.00;99325.05;1808801;78;22042;-65
2022/07/25 03:47:24;;;;;;;7.30;4.62;;;;;;;21.00;100.00;99331.45;1809968;78;21488;-65
2022/07/25 03:49:51;;;;;;;7.17;4.15;;;;;;;20.99;100.00;99331.23;1806398;78;21530;-64
2022/07/25 03:52:17;;;;;;;11.68;4.08;;;;;;;21.00;100.00;99337.83;1807963;78;21071;-63
2022/07/25 03:54:44;;;;;;;6.15;4.15;;;;;;;21.02;100.00;99338.83;1807405;78;20971;-64
2022/07/25 03:57:11;;;;;;;8.33;4.50;;;;;;;20.99;100.00;99332.63;1810694;78;21207;-64
2022/07/25 03:59:37;;;;;;;10.28;4.30;;;;;;;20.62;100.00;99344.28;1808082;78;20998;-65
2022/07/25 04:02:06;;;;;;;5.67;4.17;;;;;;;20.54;100.00;99351.83;1811071;78;21043;-64
2022/07/25 04:04:32;;;;;;;8.90;4.53;;;;;;;20.53;100.00;99353.84;1758889;80;21018;-64
2022/07/25 04:06:59;;;;;;;10.85;4.15;;;;;;;20.63;100.00;99357.88;1740730;81;20988;-64
2022/07/25 04:09:26;;;;;;;6.95;4.42;;;;;;;20.73;100.00;99365.30;1746940;81;22067;-64
2022/07/25 04:11:52;;;;;;;8.50;4.03;;;;;;;20.77;100.00;99369.74;1744526;81;21040;-64
2022/07/25 04:14:19;;;;;;;9.20;4.40;;;;;;;20.84;100.00;99361.97;1739952;81;21003;-64
2022/07/25 04:16:46;;;;;;;6.42;3.90;;;;;;;20.91;100.00;99365.39;1742683;81;21477;-63
2022/07/25 04:19:12;;;;;;;4.15;3.75;;;;;;;20.96;100.00;99360.02;1745169;81;21532;-63
2022/07/25 04:21:39;;;;;;;10.35;4.50;;;;;;;20.98;100.00;99353.44;1741483;81;21155;-64
2022/07/25 04:24:06;;;;;;;6.53;4.65;;;;;;;21.08;100.00;99358.27;1748290;81;21000;-64
2022/07/25 04:26:33;;;;;;;8.08;4.28;;;;;;;21.15;100.00;99353.28;1739703;80;21544;-65
2022/07/25 04:29:02;;;;;;;8.38;4.47;;;;;;;21.19;100.00;99348.47;1751036;81;21299;-64
2022/07/25 04:31:28;;;;;;;9.85;4.25;;;;;;;21.21;100.00;99353.67;1743213;81;21019;-64
2022/07/25 04:33:54;;;;;;;8.53;4.50;;;;;;;21.18;100.00;99346.06;1753459;80;21214;-64
2022/07/25 04:36:21;;;;;;;10.32;5.10;;;;;;;21.15;100.00;99344.87;1753944;81;21011;-64
2022/07/25 04:38:48;;;;;;;7.60;4.08;;;;;;;21.16;100.00;99343.67;1759163;80;21086;-64
2022/07/25 04:41:15;;;;;;;5.90;3.95;;;;;;;21.14;100.00;99347.45;1766605;80;21018;-64
2022/07/25 04:43:42;;;;;;;5.60;3.98;;;;;;;21.20;100.00;99357.69;1757276;81;21073;-64
2022/07/25 04:46:09;;;;;;;7.62;4.80;;;;;;;21.30;100.00;99354.10;1750473;81;21133;-63
2022/07/25 04:48:35;;;;;;;7.37;4.53;;;;;;;21.35;100.00;99352.31;1749314;81;21083;-64
2022/07/25 04:51:02;;;;;;;7.47;4.75;;;;;;;21.38;100.00;99355.71;1742332;81;21141;-63
2022/07/25 04:53:29;;;;;;;5.87;4.03;;;;;;;21.34;100.00;99356.30;1744297;81;21004;-64
2022/07/25 04:55:55;;;;;;;6.95;4.40;;;;;;;21.34;100.00;99357.70;1737721;81;20983;-64
2022/07/25 04:58:22;;;;;;;8.23;4.28;;;;;;;21.40;100.00;99359.52;1752944;81;21196;-65
2022/07/25 05:00:48;;;;;;;10.82;4.30;;;;;;;21.62;100.00;99363.14;1752053;81;21036;-64
2022/07/25 05:03:16;;;;;;;5.20;3.85;;;;;;;21.65;100.00;99361.52;1758240;80;20986;-64
2022/07/25 05:05:43;;;;;;;8.58;5.05;;;;;;;21.58;100.00;99365.12;1769817;80;21554;-65
2022/07/25 05:08:10;;;;;;;6.53;4.20;;;;;;;21.57;100.00;99367.73;1750767;81;21074;-65
2022/07/25 05:10:37;;;;;;;8.83;4.50;;;;;;;21.61;100.00;99363.54;1754079;81;21142;-65
2022/07/25 05:13:03;;;;;;;9.25;4.72;;;;;;;21.69;100.00;99362.34;1777504;80;21047;-65
2022/07/25 05:15:30;;;;;;;8.73;4.50;;;;;;;21.94;100.00;99353.75;1771078;80;20996;-65
2022/07/25 05:17:58;;;;;;;6.33;4.70;;;;;;;22.10;100.00;99356.92;1763349;80;21090;-66
2022/07/25 05:20:26;;;;;;;6.35;4.50;;;;;;;22.16;100.00;99354.48;1772792;80;21050;-65
2022/07/25 05:22:53;;;;;;;6.12;4.17;;;;;;;22.19;100.00;99362.13;1750056;81;21144;-65
2022/07/25 05:25:20;;;;;;;10.20;5.00;;;;;;;22.28;100.00;99358.88;1738571;81;21102;-64
2022/07/25 05:27:46;;;;;;;8.73;4.55;;;;;;;22.29;100.00;99355.47;1751203;81;20996;-64
2022/07/25 05:30:14;;;;;;;10.18;5.15;;;;;;;22.25;100.00;99358.28;1761285;80;21117;-64
2022/07/25 05:32:40;;;;;;;10.48;5.58;;;;;;;22.31;100.00;99359.48;1750766;81;21101;-65
2022/07/25 05:35:07;;;;;;;7.72;4.72;;;;;;;22.44;100.00;99354.23;1771911;80;21118;-65
2022/07/25 05:37:36;;;;;;;7.72;4.47;;;;;;;22.46;100.00;99354.63;1774048;80;21043;-65
2022/07/25 05:40:05;;;;;;;11.33;5.47;;;;;;;22.43;100.00;99354.05;1757239;81;21050;-64
2022/07/25 05:42:33;;;;;;;10.75;5.00;;;;;;;22.42;100.00;99358.63;1757045;81;20987;-64
2022/07/25 05:45:00;;;;;;;8.53;4.62;;;;;;;22.46;100.00;99352.42;1751119;81;21043;-64
2022/07/25 05:47:27;;;;;;;7.50;4.55;;;;;;;22.49;100.00;99358.62;1750990;81;22448;-65
2022/07/25 05:49:53;;;;;;;8.55;4.50;;;;;;;22.46;100.00;99353.23;1759097;80;20999;-64
2022/07/25 05:52:20;;;;;;;7.80;5.17;;;;;;;22.50;100.00;99345.58;1747592;81;21016;-65
2022/07/25 05:54:46;;;;;;;6.72;5.00;;;;;;;22.40;100.00;99349.84;1774923;80;21099;-63
2022/07/25 05:57:13;;;;;;;6.37;4.35;;;;;;;22.35;100.00;99352.44;1774930;80;21012;-64
2022/07/25 05:59:39;;;;;;;9.40;4.17;;;;;;;22.43;100.00;99353.23;1763296;80;21235;-64
2022/07/25 06:02:06;;;;;;;7.70;4.78;;;;;;;22.44;100.00;99356.23;1758995;80;21008;-64
2022/07/25 06:04:32;;;;;;;9.63;5.28;;;;;;;22.47;100.00;99352.02;1753918;80;21023;-64
2022/07/25 06:07:01;;;;;;;7.47;4.65;;;;;;;22.53;100.00;99342.58;1754082;80;21043;-63
2022/07/25 06:09:29;;;;;;;10.93;5.20;;;;;;;22.65;100.00;99348.97;1759143;80;21479;-65
2022/07/25 06:11:56;;;;;;;7.28;4.70;;;;;;;22.64;100.00;99340.36;1765952;80;21136;-64
2022/07/25 06:14:23;;;;;;;9.80;4.90;;;;;;;22.77;100.00;99341.50;1760514;80;21012;-65
2022/07/25 06:16:49;;;;;;;7.75;4.58;;;;;;;22.98;100.00;99332.16;1762392;80;21072;-64
2022/07/25 06:19:16;;;;;;;6.20;4.10;;;;;;;23.10;100.00;99335.09;1772593;80;21150;-64
2022/07/25 06:21:43;;;;;;;9.18;4.55;;;;;;;23.22;100.00;99332.41;1765736;80;21062;-64
2022/07/25 06:24:10;;;;;;;9.83;5.47;;;;;;;23.22;100.00;99327.38;1771707;80;21091;-65
2022/07/25 06:26:37;;;;;;;9.50;4.95;;;;;;;23.22;100.00;99323.17;1766788;80;21068;-64
2022/07/25 06:29:04;;;;;;;9.73;5.20;;;;;;;23.33;100.00;99321.10;1742356;81;21065;-64
2022/07/25 06:31:31;;;;;;;10.95;5.47;;;;;;;23.30;100.00;99319.09;1768102;80;21042;-63
2022/07/25 06:33:57;;;;;;;8.00;4.87;;;;;;;23.41;100.00;99316.84;1741280;81;21012;-64
2022/07/25 06:36:24;;;;;;;8.80;5.08;;;;;;;23.41;100.00;99319.65;1730760;81;21138;-65
2022/07/25 06:38:51;;;;;;;13.98;5.60;;;;;;;23.58;100.00;99314.50;1796540;78;21015;-65
2022/07/25 06:41:17;;;;;;;8.03;4.95;;;;;;;23.62;100.00;99313.66;1749227;80;21101;-65
2022/07/25 06:43:44;;;;;;;9.23;5.42;;;;;;;23.59;100.00;99313.27;1794129;78;21046;-64
2022/07/25 06:46:11;;;;;;;10.18;5.08;;;;;;;23.63;100.00;99306.84;1796592;78;20990;-66
2022/07/25 06:48:38;;;;;;;11.05;4.90;;;;;;;23.80;100.00;99310.67;1799860;78;21118;-64
2022/07/25 06:51:06;;;;;;;11.12;5.22;;;;;;;23.77;100.00;99309.51;1800074;78;20991;-64
2022/07/25 06:53:33;;;;;;;8.38;5.60;;;;;;;23.61;100.00;99307.86;1800691;78;20998;-65
2022/07/25 06:55:59;;;;;;;6.90;5.25;;;;;;;23.63;100.00;99313.88;1801715;78;20988;-65
2022/07/25 06:58:27;;;;;;;11.28;5.33;;;;;;;23.80;100.00;99321.33;1797242;78;21034;-66
2022/07/25 07:00:53;;;;;;;8.95;5.70;;;;;;;23.91;100.00;99317.02;1798200;78;21127;-66
2022/07/25 07:03:21;;;;;;;9.95;5.37;;;;;;;23.88;100.00;99311.42;1799418;78;20984;-65
2022/07/25 07:05:48;;;;;;;8.40;5.10;;;;;;;23.76;100.00;99307.12;1807519;78;21109;-64
2022/07/25 07:08:15;;;;;;;15.20;5.35;;;;;;;23.81;100.00;99311.70;1795829;78;21032;-64
2022/07/25 07:10:41;;;;;;;10.70;5.62;;;;;;;23.86;100.00;99313.84;1790852;78;20999;-64
2022/07/25 07:13:11;;;;;;;6.58;4.95;;;;;;;23.80;100.00;99314.30;1791374;78;21066;-65
2022/07/25 07:15:38;;;;;;;12.58;5.08;;;;;;;23.88;100.00;99314.23;1796209;78;21054;-65
2022/07/25 07:18:05;;;;;;;6.75;4.83;;;;;;;24.00;100.00;99312.31;1745582;81;21028;-66
2022/07/25 07:20:34;;;;;;;9.75;5.42;;;;;;;23.99;100.00;99303.66;1792785;78;21058;-64
2022/07/25 07:23:01;;;;;;;10.50;5.00;;;;;;;23.99;100.00;99299.45;1797925;78;21023;-65
2022/07/25 07:25:29;;;;;;;11.28;5.50;;;;;;;24.03;100.00;99305.04;1805075;78;21729;-65
2022/07/25 07:27:57;;;;;;;6.60;4.00;;;;;;;24.17;100.00;99294.27;1806377;78;20975;-66
2022/07/25 07:30:25;;;;;;;6.90;4.17;;;;;;;24.34;100.00;99292.47;1798202;78;21022;-65
2022/07/25 07:32:51;;;;;;;7.35;5.22;;;;;;;24.54;100.00;99289.80;1800679;78;20959;-65
2022/07/25 07:35:19;;;;;;;7.30;4.40;;;;;;;24.69;100.00;99289.59;1807416;77;21085;-65
2022/07/25 07:37:46;;;;;;;8.60;4.83;;;;;;;24.84;100.00;99285.96;1746481;80;22995;-66
2022/07/25 07:40:13;;;;;;;7.25;4.72;;;;;;;24.92;100.00;99291.70;1750707;80;21035;-65
2022/07/25 07:42:44;;;;;;;7.33;4.47;;;;;;;24.82;100.00;99278.57;1724588;83;21063;-64
2022/07/25 07:45:20;;;;;;;5.75;4.75;;;;;;;24.67;100.00;99282.98;1725113;81;21078;-64
2022/07/25 07:47:48;;;;;;;9.35;4.25;;;;;;;24.60;100.00;99285.11;1786289;78;21066;-64
2022/07/25 07:50:18;;;;;;;6.95;4.60;;;;;;;24.55;100.00;99284.95;1784130;78;21231;-65
2022/07/25 07:52:46;;;;;;;8.73;4.58;;;;;;;24.44;100.00;99287.91;1785745;78;21082;-65
2022/07/25 07:58:00;;;;;;;9.05;4.20;;;;;;;24.54;100.00;99288.99;1786750;78;21519;-64
2022/07/25 08:00:29;;;;;;;8.65;4.33;;;;;;;24.57;100.00;99281.73;1791898;78;21023;-65
2022/07/25 08:02:57;;;;;;;5.78;4.03;;;;;;;24.52;100.00;99293.64;1804724;78;21186;-64
2022/07/25 08:05:27;;;;;;;8.48;4.72;;;;;;;24.44;100.00;99287.91;1801589;78;20964;-65
2022/07/25 08:07:54;;;;;;;6.78;4.17;;;;;;;24.52;100.00;99283.78;1803517;78;20976;-64
2022/07/25 08:10:26;;;;;;;9.38;4.58;;;;;;;24.75;100.00;99287.92;1805622;78;21010;-64
2022/07/25 08:12:53;;;;;;;7.53;4.55;;;;;;;25.04;100.00;99291.73;1801385;78;20999;-64
2022/07/25 08:15:20;;;;;;;9.00;3.90;;;;;;;25.21;100.00;99277.01;1801850;78;21872;-64
2022/07/25 08:17:53;;;;;;;7.90;4.33;;;;;;;25.13;100.00;99274.92;1787579;78;21097;-64
2022/07/25 08:20:19;;;;;;;6.67;4.37;;;;;;;25.07;100.00;99277.42;1786114;78;21081;-64
2022/07/25 08:22:47;;;;;;;6.33;4.08;;;;;;;24.98;100.00;99278.55;1784210;78;21105;-64
2022/07/25 08:25:16;;;;;;;8.48;4.20;;;;;;;24.88;100.00;99276.05;1787155;78;21014;-64
2022/07/25 08:27:44;;;;;;;5.45;3.62;;;;;;;24.79;100.00;99274.56;1787630;78;21101;-65
2022/07/25 08:30:11;;;;;;;10.23;4.78;;;;;;;24.86;100.00;99286.95;1787539;78;20967;-65
2022/07/25 08:33:02;;;;;;;6.65;3.22;;;;;;;25.04;100.00;99283.28;1790044;78;21049;-65
2022/07/25 08:35:27;;;;;;;5.87;4.03;;;;;;;25.16;100.00;99269.84;1790384;78;21101;-64
2022/07/25 08:37:54;;;;;;;8.78;3.45;;;;;;;25.34;100.00;99268.73;1802018;78;21030;-64
2022/07/25 08:40:23;;;;;;;9.50;3.98;;;;;;;25.47;100.00;99271.76;1795206;78;22254;-65
2022/07/25 08:42:49;;;;;;;8.05;4.00;;;;;;;25.85;100.00;99270.69;1794803;78;21027;-64
2022/07/25 08:45:18;;;;;;;10.75;4.22;;;;;;;26.03;100.00;99260.48;1813003;78;21100;-64
2022/07/25 08:47:50;;;;;;;6.60;3.83;;;;;;;26.24;100.00;99271.14;1806313;78;20979;-65
2022/07/25 08:50:19;;;;;;;5.87;3.45;;;;;;;26.46;100.00;99267.28;1808624;78;21105;-65
2022/07/25 08:52:46;;;;;;;5.12;2.80;;;;;;;26.70;100.00;99261.52;1809593;78;21102;-66
2022/07/25 08:55:18;;;;;;;4.10;3.17;;;;;;;26.89;100.00;99270.39;1804840;78;21018;-65
2022/07/25 08:57:45;;;;;;;8.48;3.60;;;;;;;26.98;100.00;99269.17;1799264;78;21021;-65
2022/07/25 09:00:18;;;;;;;8.43;4.20;;;;;;;27.02;100.00;99265.47;1793183;78;21080;-65
2022/07/25 09:02:52;;;;;;;6.92;3.50;;;;;;;27.12;100.00;99261.62;1795017;78;21050;-65
2022/07/25 09:05:20;;;;;;;5.17;3.65;;;;;;;27.22;100.00;99260.56;1800597;78;21037;-66
2022/07/25 09:07:53;;;;;;;8.00;3.95;;;;;;;27.21;100.00;99250.47;1810561;78;20978;-68
2022/07/25 09:10:25;;;;;;;4.58;3.65;;;;;;;27.19;100.00;99254.35;1787420;78;21546;-65
2022/07/25 09:13:00;;;;;;;7.75;3.90;;;;;;;27.16;100.00;99255.23;1806241;78;21479;-65
2022/07/25 09:15:37;;;;;;;4.17;3.12;;;;;;;27.05;100.00;99259.76;1805064;78;21029;-64
2022/07/25 09:18:11;;;;;;;9.33;3.58;;;;;;;26.95;100.00;99251.69;1807028;78;21117;-65
2022/07/25 09:20:48;;;;;;;4.95;3.45;;;;;;;26.81;100.00;99249.99;1807456;78;21066;-65
2022/07/25 09:23:34;;;;;;;13.22;3.77;;;;;;;26.61;100.00;99244.39;1807781;78;21101;-66
2022/07/25 09:26:11;;;;;;;5.40;3.92;;;;;;;26.46;100.00;99240.46;1809676;78;21450;-64
2022/07/25 09:28:44;;;;;;;5.80;3.80;;;;;;;26.63;100.00;99242.55;1808192;78;21502;-65
2022/07/25 09:31:11;;;;;;;12.15;3.70;;;;;;;26.75;100.00;99237.60;1752784;81;21763;-65
2022/07/25 09:33:55;;;;;;;4.97;3.90;;;;;;;26.72;100.00;99242.72;1749474;81;20996;-65
2022/07/25 09:36:21;;;;;;;5.42;3.92;;;;;;;26.53;100.00;99240.14;1740610;81;21080;-65
2022/07/25 09:38:55;;;;;;;7.12;3.90;;;;;;;26.49;100.00;99234.57;1733201;82;21007;-64
2022/07/25 09:41:21;;;;;;;7.15;3.60;;;;;;;26.49;100.00;99236.76;1741500;80;21026;-65
2022/07/25 09:43:48;;;;;;;6.33;3.15;;;;;;;26.47;100.00;99240.66;1760075;80;21997;-65
2022/07/25 09:46:14;;;;;;;4.28;2.40;;;;;;;26.49;100.00;99233.16;1748221;81;20963;-65
2022/07/25 09:48:43;;;;;;;8.00;3.58;;;;;;;26.57;100.00;99236.00;1743831;81;21071;-65
2022/07/25 09:51:11;;;;;;;5.53;3.02;;;;;;;26.73;100.00;99237.27;1757900;80;21493;-67
2022/07/25 09:53:37;;;;;;;5.42;3.62;;;;;;;26.68;100.00;99238.56;1761194;80;21090;-66
2022/07/25 09:56:06;;;;;;;5.47;3.58;;;;;;;26.56;100.00;99230.80;1760430;80;21082;-65
2022/07/25 09:58:32;;;;;;;8.53;3.22;;;;;;;26.46;100.00;99234.81;1735616;80;21482;-65
2022/07/25 10:01:04;;;;;;;6.53;3.35;;;;;;;26.61;100.00;99232.46;1767011;80;21301;-65
2022/07/25 10:03:51;;;;;;;8.35;4.00;;;;;;;26.58;100.00;99236.17;1761858;80;21060;-65
2022/07/25 10:06:29;;;;;;;4.80;3.65;;;;;;;26.58;100.00;99241.04;1757654;80;21079;-65
2022/07/25 10:08:57;;;;;;;5.37;3.47;;;;;;;26.49;100.00;99231.75;1763066;80;21252;-67
2022/07/25 10:11:25;;;;;;;5.50;3.47;;;;;;;26.35;100.00;99232.84;1710165;80;21067;-64
2022/07/25 10:13:53;;;;;;;6.33;3.45;;;;;;;26.37;100.00;99237.45;1762143;80;21051;-65
2022/07/25 10:16:24;;;;;;;9.83;4.22;;;;;;;26.36;100.00;99234.43;1766229;80;21730;-65
2022/07/25 10:18:57;;;;;;;7.28;4.47;;;;;;;26.27;100.00;99229.37;1772898;80;21614;-64
2022/07/25 10:21:25;;;;;;;10.55;4.10;;;;;;;26.21;100.00;99236.73;1761240;80;21521;-64
2022/07/25 10:24:08;;;;;;;6.20;4.15;;;;;;;26.31;100.00;99238.54;1761072;80;21048;-63
2022/07/25 10:26:38;;;;;;;7.72;4.35;;;;;;;26.50;100.00;99229.09;1755684;80;20996;-63
2022/07/25 10:29:10;;;;;;;6.15;3.92;;;;;;;26.78;100.00;99228.88;1758132;80;21075;-64
2022/07/25 10:31:43;;;;;;;9.40;4.35;;;;;;;27.03;100.00;99231.75;1746534;80;21075;-65
2022/07/25 10:34:12;;;;;;;5.55;3.95;;;;;;;27.18;100.00;99216.02;1740605;81;21743;-65
2022/07/25 10:36:52;;;;;;;7.92;4.65;;;;;;;27.38;100.00;99219.99;1752400;80;21007;-66
2022/07/25 10:39:24;;;;;;;6.65;3.83;;;;;;;27.52;100.00;99215.36;1742169;81;21087;-64
2022/07/25 10:41:54;;;;;;;6.97;4.12;;;;;;;27.52;100.00;99221.02;1743619;80;20997;-64
2022/07/25 10:44:22;;;;;;;;;;;;;;;27.55;100.00;99220.76;1732717;81;21038;-65
2022/07/25 10:46:49;;;;;;;12.00;4.53;;;;;;;27.42;100.00;99224.92;1710041;83;22146;-64
2022/07/25 10:49:20;;;;;;;6.62;4.08;;;;;;;27.26;100.00;99227.94;1719067;83;21037;-64
2022/07/25 10:52:01;;;;;;;7.10;3.92;;;;;;;27.05;100.00;99234.33;1728494;81;21035;-64
2022/07/25 10:54:34;;;;;;;13.62;4.42;;;;;;;26.73;100.00;99233.03;1750536;80;21008;-63
2022/07/25 10:57:00;;;;;;;4.58;3.65;;;;;;;26.49;100.00;99229.70;1749308;82;21658;-65
2022/07/25 10:59:37;;;;;;;9.13;4.47;;;;;;;26.41;100.00;99227.50;1749154;82;21198;-64
2022/07/25 11:02:06;;;;;;;13.68;5.05;;;;;;;26.34;100.00;99229.86;1751409;81;21115;-63
2022/07/25 11:04:35;;;;;;;7.12;4.60;;;;;;;26.27;100.00;99229.97;1706959;83;21581;-65
2022/07/25 11:07:16;;;;;;;6.75;4.42;;;;;;;26.22;100.00;99229.24;1706733;84;21613;-63
2022/07/25 11:09:43;;;;;;;9.85;5.53;;;;;;;26.33;100.00;99225.39;1712669;81;21082;-64
2022/07/25 11:12:15;;;;;;;11.48;5.22;;;;;;;26.37;100.00;99226.93;1749340;80;21015;-65
2022/07/25 11:14:41;;;;;;;8.75;4.55;;;;;;;26.42;100.00;99226.25;1749012;81;21096;-64
2022/07/25 11:17:22;;;;;;;10.50;5.47;;;;;;;26.52;100.00;99227.24;1751949;81;21019;-63
2022/07/25 11:19:56;;;;;;;8.55;4.53;;;;;;;26.64;100.00;99223.75;1755157;81;21500;-63
2022/07/25 11:22:24;;;;;;;14.78;4.58;;;;;;;26.78;100.00;99221.81;1753272;81;21011;-63
2022/07/25 11:24:51;;;;;;;10.72;5.50;;;;;;;26.80;100.00;99219.36;1770399;80;21303;-64
2022/07/25 11:27:27;;;;;;;11.22;4.85;;;;;;;26.85;100.00;99225.89;1745368;81;21060;-63
2022/07/25 11:30:08;;;;;;;17.02;4.80;;;;;;;26.77;100.00;99221.02;1739369;81;21034;-64
2022/07/25 11:32:52;;;;;;;7.75;4.97;;;;;;;26.85;100.00;99223.84;1730772;83;21011;-64